Time;durP1;ratioP1;P1;durP2;ratioP2;P2;SDS_P1;SDS_P2;PMS_P1;PMS_P2;Temp;Humidity;BMP_temperature;BMP_pressure;BME280_temperature;BME280_humidity;BME280_pressure;Samples;Min_cycle;Max_cycle;Signal;HPM_P1;HPM_P2
2023/08/06 00:00:03;;;;;;;4.95;2.90;;;;;;;22.68;100.00;99155.88;5004123;28;20029;-76
2023/08/06 00:02:28;;;;;;;2.90;1.80;;;;;;;23.02;100.00;99202.53;5007235;28;20038;-76
2023/08/06 00:04:54;;;;;;;4.60;2.92;;;;;;;23.55;100.00;99293.34;5003766;28;20049;-75
2023/08/06 00:07:19;;;;;;;4.05;2.95;;;;;;;23.64;100.00;99300.72;5004374;28;20049;-78
2023/08/06 00:09:45;;;;;;;4.53;2.17;;;;;;;23.18;100.00;99232.59;5002521;28;20107;-77
2023/08/06 00:12:10;;;;;;;4.90;3.28;;;;;;;23.54;100.00;99300.53;5006319;28;20703;-76
2023/08/06 00:14:36;;;;;;;4.57;2.90;;;;;;;23.06;100.00;99241.50;5018654;28;20421;-76
2023/08/06 00:17:01;;;;;;;6.38;2.95;;;;;;;23.37;100.00;99301.72;4999080;28;20062;-77
2023/08/06 00:19:27;;;;;;;3.85;2.80;;;;;;;22.72;100.00;99232.25;5006164;28;20053;-77
2023/08/06 00:21:52;;;;;;;9.90;3.58;;;;;;;22.80;100.00;99223.69;5005404;28;20478;-76
2023/08/06 00:24:18;;;;;;;4.43;2.50;;;;;;;23.38;100.00;99318.63;5006376;28;20374;-76
2023/08/06 00:26:43;;;;;;;3.63;2.28;;;;;;;23.37;100.00;99298.19;5004274;28;20347;-77
2023/08/06 00:29:08;;;;;;;6.05;3.40;;;;;;;22.96;100.00;99235.03;5005886;28;20049;-76
2023/08/06 00:31:34;;;;;;;4.40;2.33;;;;;;;23.16;100.00;99287.19;5006186;28;20553;-76
2023/08/06 00:33:59;;;;;;;4.38;2.55;;;;;;;22.69;100.00;99203.06;5005816;28;20516;-76
2023/08/06 00:36:25;;;;;;;14.95;5.50;;;;;;;22.79;100.00;99212.13;4998729;28;20541;-78
2023/08/06 00:38:50;;;;;;;5.50;3.03;;;;;;;22.68;100.00;99186.13;5005948;28;20030;-77
2023/08/06 00:41:16;;;;;;;5.00;4.13;;;;;;;23.37;100.00;99306.22;5006679;28;20022;-75
2023/08/06 00:43:41;;;;;;;6.72;3.22;;;;;;;23.31;100.00;99312.00;5001493;28;20067;-76
2023/08/06 00:46:07;;;;;;;3.30;2.00;;;;;;;22.74;100.00;99209.78;5005914;28;20371;-78
2023/08/06 00:48:33;;;;;;;4.20;2.58;;;;;;;23.11;100.00;99308.06;5006061;28;20042;-77
2023/08/06 00:50:59;;;;;;;5.38;4.07;;;;;;;23.04;100.00;99293.38;5001722;28;20029;-77
2023/08/06 00:53:24;;;;;;;10.18;3.47;;;;;;;22.87;100.00;99241.88;5000832;28;20033;-76
2023/08/06 00:55:51;;;;;;;6.55;3.08;;;;;;;23.03;100.00;99279.16;5005929;28;20389;-77
2023/08/06 00:58:16;;;;;;;4.47;2.40;;;;;;;22.43;100.00;99208.38;5005987;28;20394;-77
2023/08/06 01:00:42;;;;;;;3.38;2.25;;;;;;;22.32;100.00;99186.88;5005663;28;20035;-77
2023/08/06 01:03:08;;;;;;;5.07;3.03;;;;;;;22.80;100.00;99271.81;5003525;28;20038;-78
2023/08/06 01:05:34;;;;;;;5.53;3.13;;;;;;;22.44;100.00;99212.75;5002989;28;20022;-77
2023/08/06 01:08:23;;;;;;;7.28;3.45;;;;;;;22.92;100.00;99285.22;5005881;28;20054;-77
2023/08/06 01:11:00;;;;;;;5.20;4.20;;;;;;;22.50;100.00;99231.06;5004953;28;20546;-76
2023/08/06 01:13:40;;;;;;;6.45;2.80;;;;;;;23.13;100.00;99308.78;5009672;28;20080;-77
2023/08/06 01:16:08;;;;;;;4.95;3.30;;;;;;;23.03;100.00;99292.53;5009524;28;20363;-76
2023/08/06 01:18:33;;;;;;;5.00;4.50;;;;;;;23.00;100.00;99303.44;5008425;28;20393;-75
2023/08/06 01:20:59;;;;;;;9.32;3.95;;;;;;;22.90;100.00;99276.44;5004123;28;20026;-77
2023/08/06 01:23:24;;;;;;;6.13;4.13;;;;;;;22.47;100.00;99203.66;5010290;28;20080;-78
2023/08/06 01:26:18;;;;;;;5.72;3.22;;;;;;;23.01;100.00;99293.59;5008985;28;20477;-76
2023/08/06 01:29:07;;;;;;;5.50;4.10;;;;;;;23.02;100.00;99285.47;5005794;28;20141;-76
2023/08/06 01:31:37;;;;;;;6.05;4.03;;;;;;;22.87;100.00;99262.41;5009016;28;20045;-75
2023/08/06 01:34:06;;;;;;;4.88;3.58;;;;;;;22.45;100.00;99195.75;5008965;28;20050;-77
2023/08/06 01:36:32;;;;;;;10.02;4.65;;;;;;;22.05;100.00;99194.88;5000457;28;20038;-76
2023/08/06 01:38:58;;;;;;;6.22;4.25;;;;;;;22.66;100.00;99256.72;5009500;28;20137;-78
2023/08/06 01:41:23;;;;;;;6.28;4.82;;;;;;;22.72;100.00;99250.97;5010095;28;20130;-77
2023/08/06 01:43:48;;;;;;;6.22;4.40;;;;;;;22.59;100.00;99231.38;5015681;28;20045;-76
2023/08/06 01:46:14;;;;;;;4.60;3.60;;;;;;;22.60;100.00;99244.66;5011452;28;20571;-79
2023/08/06 01:48:40;;;;;;;8.45;4.38;;;;;;;22.26;100.00;99168.56;5014138;28;20038;-77
2023/08/06 01:51:06;;;;;;;3.90;2.58;;;;;;;22.53;100.00;99246.03;5023954;28;20389;-78
2023/08/06 01:53:32;;;;;;;10.77;6.18;;;;;;;22.27;100.00;99296.75;5012182;28;20026;-76
2023/08/06 01:55:58;;;;;;;6.32;4.22;;;;;;;21.89;100.00;99219.09;5017568;28;20045;-77
2023/08/06 01:58:23;;;;;;;6.13;4.13;;;;;;;22.09;100.00;99223.13;5014607;28;20045;-76
2023/08/06 02:00:49;;;;;;;12.50;5.38;;;;;;;22.06;100.00;99191.28;5022583;28;20049;-76
2023/08/06 02:03:14;;;;;;;5.53;4.28;;;;;;;22.04;100.00;99199.38;5021422;28;20490;-77
2023/08/06 02:05:40;;;;;;;7.95;5.10;;;;;;;22.54;100.00;99326.13;5024188;28;20021;-77
2023/08/06 02:08:06;;;;;;;8.15;4.75;;;;;;;21.91;100.00;99206.50;5018456;28;20100;-78
2023/08/06 02:10:32;;;;;;;8.30;4.30;;;;;;;22.10;100.00;99211.47;5013885;28;20042;-76
2023/08/06 02:12:57;;;;;;;8.60;4.75;;;;;;;22.81;100.00;99311.00;5016942;28;20045;-77
2023/08/06 02:15:23;;;;;;;5.30;3.63;;;;;;;22.41;100.00;99311.88;5015416;28;20068;-78
2023/08/06 02:17:48;;;;;;;7.25;4.40;;;;;;;21.06;100.00;99065.19;5040652;28;20030;-76
2023/08/06 02:20:13;;;;;;;4.85;3.88;;;;;;;22.61;100.00;99301.66;5019247;28;20465;-78
2023/08/06 02:22:39;;;;;;;6.85;4.13;;;;;;;22.24;100.00;99232.81;5017289;28;20387;-77
2023/08/06 02:25:06;;;;;;;6.15;4.30;;;;;;;22.27;100.00;99267.34;5018142;28;20418;-76
2023/08/06 02:27:31;;;;;;;14.95;5.53;;;;;;;22.63;100.00;99303.25;5022805;28;20124;-75
2023/08/06 02:29:58;;;;;;;13.70;4.55;;;;;;;22.24;100.00;99248.88;5024307;28;20494;-77
2023/08/06 02:32:24;;;;;;;5.18;3.53;;;;;;;22.24;100.00;99231.94;5019925;28;20034;-76
2023/08/06 02:34:49;;;;;;;8.02;4.35;;;;;;;22.49;100.00;99296.16;5008741;28;20106;-76
2023/08/06 02:37:14;;;;;;;7.95;4.70;;;;;;;22.52;100.00;99313.81;5014947;28;20589;-75
2023/08/06 02:39:40;;;;;;;7.72;5.88;;;;;;;22.20;100.00;99324.81;5019732;28;20042;-75
2023/08/06 02:42:07;;;;;;;6.03;4.13;;;;;;;21.65;100.00;99310.50;5021256;28;20032;-76
2023/08/06 02:44:33;;;;;;;8.25;3.97;;;;;;;21.01;100.00;99243.34;5015070;28;20032;-77
2023/08/06 02:46:59;;;;;;;5.78;4.03;;;;;;;21.14;100.00;99247.91;5014674;28;20195;-77
2023/08/06 02:49:25;;;;;;;5.95;3.03;;;;;;;21.90;100.00;99338.34;5014860;28;20038;-75
2023/08/06 02:51:50;;;;;;;4.72;3.63;;;;;;;22.05;100.00;99350.69;5019173;28;20048;-77
2023/08/06 02:54:16;;;;;;;5.72;3.50;;;;;;;22.14;100.00;99309.16;5020485;28;20041;-78
2023/08/06 02:56:46;;;;;;;9.75;3.58;;;;;;;22.18;100.00;99283.13;5017079;28;20041;-76
2023/08/06 02:59:12;;;;;;;7.72;4.82;;;;;;;22.29;100.00;99288.66;5011705;28;20125;-76
2023/08/06 03:01:38;;;;;;;7.78;4.38;;;;;;;22.37;100.00;99315.69;5021446;28;20077;-76
2023/08/06 03:04:03;;;;;;;16.38;4.95;;;;;;;21.81;100.00;99194.72;5015362;28;20069;-76
2023/08/06 03:06:29;;;;;;;7.85;4.82;;;;;;;21.87;100.00;99195.16;5006113;28;20133;-78
2023/08/06 03:08:54;;;;;;;6.57;4.18;;;;;;;22.41;100.00;99298.50;5013295;28;20026;-77
2023/08/06 03:11:20;;;;;;;8.43;4.30;;;;;;;22.11;100.00;99264.81;5014572;28;20033;-77
2023/08/06 03:13:47;;;;;;;6.88;4.40;;;;;;;22.44;100.00;99298.28;5011096;28;20069;-76
2023/08/06 03:16:13;;;;;;;7.13;3.92;;;;;;;22.33;100.00;99290.13;5012118;28;20049;-76
2023/08/06 03:18:39;;;;;;;4.88;4.03;;;;;;;22.41;100.00;99284.28;5039041;28;20055;-76
2023/08/06 03:21:05;;;;;;;6.38;3.83;;;;;;;21.98;100.00;99213.13;5012547;28;20556;-76
2023/08/06 03:23:30;;;;;;;5.97;4.10;;;;;;;22.66;100.00;99307.53;5009762;28;20030;-78
2023/08/06 03:25:55;;;;;;;9.00;4.82;;;;;;;22.47;100.00;99313.28;5010407;28;20099;-77
2023/08/06 03:28:22;;;;;;;6.38;4.30;;;;;;;22.06;100.00;99229.53;5013030;28;20077;-76
2023/08/06 03:30:48;;;;;;;6.13;4.10;;;;;;;22.14;100.00;99216.50;5011979;28;20038;-76
2023/08/06 03:33:13;;;;;;;8.68;7.78;;;;;;;22.73;100.00;99300.81;5011786;28;20042;-77
2023/08/06 03:35:39;;;;;;;8.88;4.78;;;;;;;22.70;100.00;99304.56;5012500;28;20095;-77
2023/08/06 03:38:05;;;;;;;5.03;3.83;;;;;;;22.62;100.00;99264.13;5012653;28;20697;-77
2023/08/06 03:40:30;;;;;;;9.30;5.05;;;;;;;22.74;100.00;99273.13;5013090;28;20503;-75
2023/08/06 03:42:56;;;;;;;6.65;4.93;;;;;;;21.96;100.00;99168.78;5011106;28;20053;-77
2023/08/06 03:45:21;;;;;;;6.35;4.68;;;;;;;22.43;100.00;99250.28;5009554;28;20397;-75
2023/08/06 03:47:46;;;;;;;5.45;3.90;;;;;;;22.62;100.00;99274.81;5017968;28;20025;-75
2023/08/06 03:50:12;;;;;;;6.65;4.93;;;;;;;22.79;100.00;99284.34;5018916;28;20049;-76
2023/08/06 03:52:38;;;;;;;5.07;3.35;;;;;;;22.31;100.00;99188.69;5015233;28;20037;-75
2023/08/06 03:55:03;;;;;;;5.80;3.75;;;;;;;22.16;100.00;99168.31;5017500;28;20048;-75
2023/08/06 03:57:29;;;;;;;6.97;5.65;;;;;;;21.85;100.00;99103.59;5017818;28;20041;-79
2023/08/06 03:59:54;;;;;;;10.07;4.97;;;;;;;22.18;100.00;99168.22;5017109;28;20496;-75
2023/08/06 04:02:20;;;;;;;6.05;3.78;;;;;;;22.84;100.00;99266.16;5017022;28;20025;-74
2023/08/06 04:04:45;;;;;;;6.88;3.95;;;;;;;22.80;100.00;99278.03;5014666;28;20042;-76
2023/08/06 04:07:11;;;;;;;5.57;4.10;;;;;;;22.89;100.00;99268.53;5005413;28;20102;-77
2023/08/06 04:09:52;;;;;;;8.60;4.47;;;;;;;22.38;100.00;99169.53;5014693;28;20390;-77
2023/08/06 04:12:17;;;;;;;8.52;6.00;;;;;;;22.42;100.00;99173.72;5007720;28;20389;-77
2023/08/06 04:14:43;;;;;;;6.47;3.88;;;;;;;22.53;100.00;99206.78;5008459;28;20030;-76
2023/08/06 04:17:08;;;;;;;7.43;4.22;;;;;;;22.36;100.00;99262.34;5012869;28;20050;-76
2023/08/06 04:19:34;;;;;;;7.50;4.95;;;;;;;22.08;100.00;99150.13;5013344;28;20042;-76
2023/08/06 04:21:59;;;;;;;9.18;3.92;;;;;;;23.02;100.00;99276.59;5011946;28;20041;-76
2023/08/06 04:24:25;;;;;;;4.30;3.10;;;;;;;22.51;100.00;99192.66;5007008;28;20033;-75
2023/08/06 04:26:50;;;;;;;7.78;4.47;;;;;;;22.95;100.00;99262.75;5017953;28;20022;-75
2023/08/06 04:29:15;;;;;;;7.00;4.55;;;;;;;23.05;100.00;99263.84;5008006;28;20080;-76
2023/08/06 04:31:41;;;;;;;4.60;3.75;;;;;;;22.50;100.00;99171.34;5015027;28;20218;-76
2023/08/06 04:34:09;;;;;;;7.00;4.78;;;;;;;23.03;100.00;99247.03;5018429;28;20037;-76
2023/08/06 04:36:34;;;;;;;7.10;4.03;;;;;;;22.89;100.00;99274.72;5000386;28;20080;-77
2023/08/06 04:38:59;;;;;;;5.57;4.38;;;;;;;23.05;100.00;99266.53;5014215;28;20026;-77
2023/08/06 04:41:25;;;;;;;7.10;4.47;;;;;;;23.06;100.00;99256.66;5013656;28;20026;-78
2023/08/06 04:43:50;;;;;;;6.20;4.00;;;;;;;22.10;100.00;99136.66;5017344;28;20083;-76
2023/08/06 04:46:16;;;;;;;5.28;3.70;;;;;;;22.40;100.00;99163.13;5015841;28;20042;-76
2023/08/06 04:48:41;;;;;;;9.20;5.05;;;;;;;22.99;100.00;99269.63;5016683;28;20038;-76
2023/08/06 04:51:07;;;;;;;5.78;3.95;;;;;;;22.68;100.00;99257.47;5004229;28;20054;-77
2023/08/06 04:53:32;;;;;;;12.32;3.80;;;;;;;22.69;100.00;99261.88;5023577;28;20018;-77
2023/08/06 04:55:58;;;;;;;8.60;5.35;;;;;;;23.16;100.00;99285.34;5016660;28;20562;-77
2023/08/06 04:58:23;;;;;;;7.25;5.97;;;;;;;22.54;100.00;99205.78;5026164;28;20146;-75
2023/08/06 05:00:49;;;;;;;8.60;5.72;;;;;;;22.64;100.00;99280.03;5021119;28;20049;-76
2023/08/06 05:03:14;;;;;;;6.05;4.72;;;;;;;21.88;100.00;99175.50;5025029;28;20088;-77
2023/08/06 05:05:41;;;;;;;7.68;5.10;;;;;;;22.71;100.00;99274.19;5024415;28;20034;-77
2023/08/06 05:08:07;;;;;;;6.32;4.32;;;;;;;22.42;100.00;99179.06;5009753;28;20557;-77
2023/08/06 05:10:32;;;;;;;9.75;6.13;;;;;;;23.03;100.00;99260.41;5012374;28;20037;-77
2023/08/06 05:12:58;;;;;;;7.38;5.13;;;;;;;23.13;100.00;99268.66;5011339;28;20050;-77
2023/08/06 05:15:25;;;;;;;6.35;5.03;;;;;;;23.14;100.00;99259.66;5013252;28;20067;-76
2023/08/06 05:17:51;;;;;;;8.38;4.72;;;;;;;22.80;100.00;99181.72;5016449;28;20723;-77
2023/08/06 05:20:17;;;;;;;6.22;4.30;;;;;;;22.76;100.00;99158.88;5016784;28;20029;-76
2023/08/06 05:22:43;;;;;;;7.38;4.65;;;;;;;23.44;100.00;99255.78;5016884;28;20516;-77
2023/08/06 05:25:08;;;;;;;6.18;4.65;;;;;;;23.65;100.00;99259.59;5013118;28;20168;-76
2023/08/06 05:27:34;;;;;;;5.25;3.65;;;;;;;23.24;100.00;99160.84;5014818;28;20034;-75
2023/08/06 05:29:59;;;;;;;6.75;4.13;;;;;;;23.31;100.00;99154.06;5020382;28;20084;-78
2023/08/06 05:32:25;;;;;;;6.97;4.72;;;;;;;23.83;100.00;99214.53;5010789;28;20125;-76
2023/08/06 05:34:50;;;;;;;8.30;4.38;;;;;;;23.37;100.00;99118.84;5014651;28;20424;-76
2023/08/06 05:37:16;;;;;;;15.63;4.90;;;;;;;23.95;100.00;99199.38;5016002;28;20048;-78
2023/08/06 05:39:41;;;;;;;6.82;5.30;;;;;;;23.42;100.00;99130.03;5007376;28;20046;-77
2023/08/06 05:42:07;;;;;;;4.68;2.95;;;;;;;23.89;100.00;99194.47;5015635;28;20852;-78
2023/08/06 05:44:32;;;;;;;7.88;4.95;;;;;;;23.35;100.00;99092.16;5013609;28;20029;-76
2023/08/06 05:46:59;;;;;;;8.07;4.85;;;;;;;23.59;100.00;99104.69;5018846;28;20800;-78
2023/08/06 05:49:24;;;;;;;7.85;4.60;;;;;;;23.48;100.00;99091.25;5025462;28;20034;-76
2023/08/06 05:51:53;;;;;;;5.28;3.70;;;;;;;23.70;100.00;99093.19;5017022;28;20046;-76
2023/08/06 05:54:19;;;;;;;9.30;4.25;;;;;;;23.94;100.00;99170.88;5021653;28;20037;-77
2023/08/06 05:56:44;;;;;;;5.45;3.70;;;;;;;24.44;100.00;99148.25;5020174;28;20041;-79
2023/08/06 05:59:10;;;;;;;9.05;4.80;;;;;;;24.08;100.00;99082.22;5020211;28;20049;-77
2023/08/06 06:01:35;;;;;;;6.93;3.75;;;;;;;23.80;100.00;99171.91;5020061;28;20044;-78
2023/08/06 06:04:01;;;;;;;7.60;4.35;;;;;;;24.27;100.00;99167.44;5014463;28;20690;-76
2023/08/06 06:06:26;;;;;;;5.70;4.18;;;;;;;23.96;100.00;99102.78;5009870;28;20269;-76
2023/08/06 06:08:51;;;;;;;4.93;3.20;;;;;;;24.13;100.00;99179.22;5015587;28;20084;-76
2023/08/06 06:11:19;;;;;;;7.70;5.25;;;;;;;24.33;100.00;99169.66;5008943;28;20029;-77
2023/08/06 06:13:44;;;;;;;9.55;5.72;;;;;;;23.66;100.00;99073.78;5008629;28;20068;-78
2023/08/06 06:16:10;;;;;;;7.72;3.17;;;;;;;23.63;100.00;98982.13;5007593;28;20425;-76
2023/08/06 06:18:35;;;;;;;6.13;4.18;;;;;;;24.98;100.00;99100.22;5011558;28;20030;-77
2023/08/06 06:21:01;;;;;;;13.90;5.00;;;;;;;24.97;100.00;99123.53;5009462;28;20077;-76
2023/08/06 06:23:26;;;;;;;5.38;3.45;;;;;;;25.29;100.00;99141.59;5013609;28;20026;-76
2023/08/06 06:25:52;;;;;;;7.20;3.90;;;;;;;24.86;100.00;99136.94;5015377;28;20034;-76
2023/08/06 06:28:18;;;;;;;4.38;3.80;;;;;;;24.90;100.00;99100.00;5013064;28;20042;-76
2023/08/06 06:30:43;;;;;;;10.43;3.47;;;;;;;25.01;100.00;99124.13;5009531;28;20414;-76
2023/08/06 06:33:09;;;;;;;4.85;3.13;;;;;;;25.16;100.00;99122.88;5046620;28;20053;-78
2023/08/06 06:35:34;;;;;;;3.90;2.80;;;;;;;24.83;100.00;99032.53;5011044;28;20036;-76
2023/08/06 06:38:00;;;;;;;6.47;3.88;;;;;;;25.42;100.00;99101.13;5010568;28;20062;-76
2023/08/06 06:40:26;;;;;;;4.72;3.60;;;;;;;25.05;100.00;99048.63;5016942;28;20042;-77
2023/08/06 06:42:52;;;;;;;5.35;3.25;;;;;;;25.31;100.00;99114.59;5014640;28;20138;-78
2023/08/06 06:45:17;;;;;;;4.93;3.90;;;;;;;25.36;100.00;99097.13;5002919;28;20449;-77
2023/08/06 06:47:43;;;;;;;7.13;3.42;;;;;;;25.60;100.00;99082.63;5022843;28;20435;-76
2023/08/06 06:50:09;;;;;;;4.95;3.17;;;;;;;25.72;100.00;99086.97;5011881;28;20034;-76
2023/08/06 06:52:35;;;;;;;5.78;3.05;;;;;;;25.73;100.00;99096.75;5022818;28;20396;-77
2023/08/06 06:55:00;;;;;;;7.05;3.78;;;;;;;25.19;100.00;99017.09;5020319;28;20041;-76
2023/08/06 06:57:26;;;;;;;15.20;6.28;;;;;;;24.77;100.00;99028.53;5021695;28;20087;-78
2023/08/06 06:59:51;;;;;;;5.75;3.22;;;;;;;25.23;100.00;99037.34;5014258;28;20022;-77
2023/08/06 07:02:17;;;;;;;7.85;3.80;;;;;;;25.27;100.00;99011.97;5012857;28;20470;-76
2023/08/06 07:04:42;;;;;;;10.18;3.92;;;;;;;25.33;100.00;99018.63;5018337;28;20076;-77
2023/08/06 07:07:07;;;;;;;12.65;5.20;;;;;;;25.49;100.00;99037.84;5009212;28;20554;-78
2023/08/06 07:09:33;;;;;;;5.90;3.13;;;;;;;25.24;100.00;99004.16;5006983;28;20535;-77
2023/08/06 07:11:59;;;;;;;5.00;3.50;;;;;;;25.48;100.00;99103.31;5011989;28;20033;-78
2023/08/06 07:14:28;;;;;;;6.28;3.92;;;;;;;25.53;100.00;99098.41;5013709;28;20109;-76
2023/08/06 07:16:54;;;;;;;4.65;3.13;;;;;;;25.74;100.00;99094.91;5010592;28;20038;-77
2023/08/06 07:19:20;;;;;;;4.75;3.40;;;;;;;26.23;100.00;99096.16;5013334;28;20092;-79
2023/08/06 07:21:45;;;;;;;5.05;2.78;;;;;;;26.54;100.00;99097.03;5007630;28;20110;-78
2023/08/06 07:24:11;;;;;;;4.38;3.20;;;;;;;25.58;100.00;99085.44;5021327;28;20077;-78
2023/08/06 07:26:37;;;;;;;7.25;3.38;;;;;;;25.84;100.00;99044.78;5011024;28;20116;-79
2023/08/06 07:29:03;;;;;;;5.88;4.18;;;;;;;26.33;100.00;99097.88;5013452;28;20285;-76
2023/08/06 07:31:28;;;;;;;6.55;4.30;;;;;;;25.66;100.00;98997.00;5011489;28;20070;-75
2023/08/06 07:33:53;;;;;;;6.43;3.45;;;;;;;26.07;100.00;99070.56;5007595;28;20064;-77
2023/08/06 07:36:19;;;;;;;5.90;4.05;;;;;;;25.70;100.00;99011.84;5003645;28;20054;-78
2023/08/06 07:38:44;;;;;;;4.82;3.72;;;;;;;25.85;100.00;99017.78;5014316;28;20041;-77
2023/08/06 07:41:10;;;;;;;4.50;3.30;;;;;;;26.17;100.00;99089.44;5007569;28;20053;-78
2023/08/06 07:43:35;;;;;;;3.95;2.85;;;;;;;26.25;100.00;99135.38;5010851;28;20072;-79
2023/08/06 07:46:01;;;;;;;4.97;3.63;;;;;;;26.42;100.00;99119.59;5006566;28;20050;-76
2023/08/06 07:48:27;;;;;;;5.25;3.13;;;;;;;25.70;100.00;99025.28;5016092;28;20506;-76
2023/08/06 07:50:56;;;;;;;3.45;2.22;;;;;;;25.59;100.00;99048.69;5004688;28;20025;-78
2023/08/06 07:53:24;;;;;;;4.63;2.63;;;;;;;26.28;100.00;99115.41;5014896;28;20037;-75
2023/08/06 07:55:53;;;;;;;9.88;3.22;;;;;;;26.14;100.00;99113.91;5009352;28;20053;-77
2023/08/06 07:58:20;;;;;;;4.20;2.80;;;;;;;25.85;100.00;99100.25;5006067;28;20026;-79
2023/08/06 08:00:46;;;;;;;3.67;2.38;;;;;;;25.22;100.00;99015.03;5005446;28;20116;-76
2023/08/06 08:03:15;;;;;;;5.50;3.10;;;;;;;25.09;100.00;99013.44;5037719;28;20922;-78
2023/08/06 08:05:42;;;;;;;4.47;3.10;;;;;;;25.74;100.00;99073.41;4998051;28;20030;-76
2023/08/06 08:08:08;;;;;;;8.32;3.95;;;;;;;25.59;100.00;99092.53;5003185;28;20399;-77
2023/08/06 08:10:34;;;;;;;5.07;3.50;;;;;;;25.92;100.00;99081.78;5003375;28;20053;-75
2023/08/06 08:13:01;;;;;;;3.70;2.70;;;;;;;25.79;100.00;99045.16;5005822;28;20156;-80
2023/08/06 08:15:29;;;;;;;3.30;2.10;;;;;;;25.40;100.00;99057.44;5004991;28;20597;-77
2023/08/06 08:17:54;;;;;;;5.65;3.15;;;;;;;25.87;100.00;99013.16;5005921;28;20084;-78
2023/08/06 08:20:20;;;;;;;8.07;4.38;;;;;;;25.47;100.00;98940.44;5005581;28;20029;-79
2023/08/06 08:22:46;;;;;;;4.45;3.03;;;;;;;25.81;100.00;99029.75;5004476;28;20498;-78
2023/08/06 08:25:11;;;;;;;3.08;2.25;;;;;;;25.82;100.00;99068.22;5006237;28;20076;-77
2023/08/06 08:27:37;;;;;;;6.28;2.85;;;;;;;25.73;100.00;99002.72;5005754;28;20030;-78
2023/08/06 08:30:02;;;;;;;8.45;3.95;;;;;;;25.81;100.00;98989.44;5006108;28;20026;-77
2023/08/06 08:32:28;;;;;;;3.40;2.28;;;;;;;26.46;100.00;99086.09;5004321;28;20036;-75
2023/08/06 08:34:53;;;;;;;11.50;3.45;;;;;;;26.31;100.00;99029.09;5003960;28;20030;-77
2023/08/06 08:37:19;;;;;;;9.85;3.53;;;;;;;26.71;100.00;99088.34;5004725;28;20527;-79
2023/08/06 08:39:44;;;;;;;4.60;3.05;;;;;;;26.20;100.00;99046.16;5006195;28;20046;-76
2023/08/06 08:42:10;;;;;;;4.70;3.42;;;;;;;26.23;100.00;99098.84;5004608;28;20042;-77
2023/08/06 08:44:39;;;;;;;8.95;5.10;;;;;;;26.57;100.00;99061.78;5003890;28;20061;-78
2023/08/06 08:47:06;;;;;;;6.05;4.00;;;;;;;26.30;100.00;98985.19;5005918;28;20080;-77
2023/08/06 08:49:32;;;;;;;4.63;3.00;;;;;;;26.22;100.00;99072.91;5004507;28;20082;-76
2023/08/06 08:52:01;;;;;;;4.65;3.22;;;;;;;26.14;100.00;99010.88;4997550;28;20037;-77
2023/08/06 08:54:28;;;;;;;6.38;4.13;;;;;;;26.65;100.00;99093.44;5005821;28;20120;-76
2023/08/06 08:56:55;;;;;;;6.63;3.45;;;;;;;26.73;100.00;99075.59;5005438;28;20116;-76
2023/08/06 08:59:20;;;;;;;3.97;2.88;;;;;;;26.87;100.00;99073.50;5000074;28;20520;-78
2023/08/06 09:01:51;;;;;;;3.92;3.30;;;;;;;26.94;100.00;99101.59;5005392;28;20038;-78
2023/08/06 09:04:17;;;;;;;5.78;3.65;;;;;;;26.43;100.00;99024.47;5001880;28;20045;-78
2023/08/06 09:06:46;;;;;;;7.25;4.53;;;;;;;27.12;100.00;99109.88;5001170;28;20050;-77
2023/08/06 09:09:26;;;;;;;4.80;2.97;;;;;;;27.05;100.00;99111.41;4998855;28;20088;-76
2023/08/06 09:11:52;;;;;;;3.67;2.47;;;;;;;26.84;100.00;99065.72;5004480;28;20037;-78
2023/08/06 09:14:18;;;;;;;4.35;2.50;;;;;;;26.09;100.00;98970.97;5006181;28;20109;-77
2023/08/06 09:16:43;;;;;;;6.25;3.17;;;;;;;26.47;100.00;99042.03;5003047;28;20042;-76
2023/08/06 09:19:15;;;;;;;5.03;3.55;;;;;;;25.88;100.00;99033.66;5004177;28;20433;-77
2023/08/06 09:21:41;;;;;;;5.57;3.92;;;;;;;26.46;100.00;99123.75;5005849;28;20039;-77
2023/08/06 09:24:17;;;;;;;5.85;2.80;;;;;;;26.51;100.00;99055.09;5004988;28;20085;-76
2023/08/06 09:26:45;;;;;;;7.35;2.97;;;;;;;26.63;100.00;99004.75;5002847;28;20022;-77
2023/08/06 09:29:11;;;;;;;5.80;2.03;;;;;;;27.67;100.00;99129.13;5004973;28;20125;-77
2023/08/06 09:31:45;;;;;;;4.85;2.30;;;;;;;27.26;100.00;99138.31;5005305;28;20030;-78
2023/08/06 09:34:17;;;;;;;6.82;1.88;;;;;;;26.72;100.00;99067.66;5008896;28;20050;-80
2023/08/06 09:36:45;;;;;;;5.53;2.80;;;;;;;27.61;100.00;99155.81;5001173;28;20061;-77
2023/08/06 09:39:22;;;;;;;4.28;1.75;;;;;;;25.86;100.00;98998.00;5023740;28;20440;-77
2023/08/06 09:41:48;;;;;;;2.33;1.70;;;;;;;26.25;100.00;99086.13;5007625;28;20065;-77
2023/08/06 09:44:23;;;;;;;2.03;1.05;;;;;;;26.17;100.00;99092.13;5002318;28;20096;-77
2023/08/06 09:46:53;;;;;;;2.10;1.52;;;;;;;26.84;100.00;99168.88;5007856;28;20110;-75
2023/08/06 09:49:21;;;;;;;3.85;1.75;;;;;;;27.12;100.00;99131.41;5006580;28;20053;-75
2023/08/06 09:51:50;;;;;;;2.17;1.40;;;;;;;26.90;100.00;99145.91;5007939;28;20037;-78
2023/08/06 09:54:16;;;;;;;3.30;1.83;;;;;;;26.53;100.00;99060.34;5005468;28;20045;-78
2023/08/06 09:56:43;;;;;;;1.67;1.08;;;;;;;27.33;100.00;99161.84;5009604;28;20029;-77
2023/08/06 09:59:09;;;;;;;4.60;2.17;;;;;;;27.19;100.00;99064.41;5008017;28;20164;-77
2023/08/06 10:01:35;;;;;;;2.47;1.50;;;;;;;27.87;100.00;99161.53;5005019;28;20481;-76
2023/08/06 10:04:03;;;;;;;2.92;1.58;;;;;;;27.31;100.00;99157.59;5004790;28;20046;-76
2023/08/06 10:06:29;;;;;;;2.78;1.60;;;;;;;27.08;100.00;99133.53;5003412;28;20037;-76
2023/08/06 10:08:55;;;;;;;5.57;1.58;;;;;;;27.12;100.00;99118.81;5008089;28;20037;-76
2023/08/06 10:11:25;;;;;;;4.15;1.20;;;;;;;26.55;100.00;99033.31;4999744;28;20046;-75
2023/08/06 10:13:56;;;;;;;2.08;1.23;;;;;;;27.08;100.00;99095.81;5007840;28;20478;-77
2023/08/06 10:16:23;;;;;;;9.63;2.53;;;;;;;27.03;100.00;99081.91;5006011;28;20092;-76
2023/08/06 10:18:49;;;;;;;2.40;1.05;;;;;;;26.82;100.00;99089.22;5008126;28;20489;-76
2023/08/06 10:21:15;;;;;;;3.75;1.52;;;;;;;27.30;100.00;99094.78;5003557;28;20038;-75
2023/08/06 10:23:41;;;;;;;2.53;1.42;;;;;;;27.08;100.00;99001.56;5008137;28;20351;-76
2023/08/06 10:26:07;;;;;;;4.00;1.50;;;;;;;27.97;100.00;99084.19;5007990;28;20061;-78
2023/08/06 10:28:39;;;;;;;2.03;1.08;;;;;;;28.19;100.00;99073.06;5006832;28;20056;-76
2023/08/06 10:31:06;;;;;;;2.90;2.17;;;;;;;27.74;100.00;99019.72;5008112;28;20141;-76
2023/08/06 10:33:43;;;;;;;3.67;1.55;;;;;;;27.75;100.00;99091.53;5007492;28;20046;-76
2023/08/06 10:36:09;;;;;;;3.28;1.70;;;;;;;27.38;100.00;98989.00;5006516;28;20049;-79
2023/08/06 10:38:43;;;;;;;3.78;1.98;;;;;;;27.24;100.00;98976.81;5006451;28;20096;-77
2023/08/06 10:41:17;;;;;;;2.58;2.33;;;;;;;27.10;100.00;99015.75;5007642;28;20045;-77
2023/08/06 10:43:44;;;;;;;2.75;1.50;;;;;;;27.83;100.00;99068.41;4993036;28;20038;-79
2023/08/06 10:46:12;;;;;;;2.53;1.60;;;;;;;26.98;100.00;98889.50;5002879;28;20041;-77
2023/08/06 10:48:41;;;;;;;2.58;1.77;;;;;;;27.71;100.00;98966.13;5006236;28;20042;-77
2023/08/06 10:51:12;;;;;;;1.98;0.80;;;;;;;27.36;100.00;99039.47;5007118;28;20427;-78
2023/08/06 10:53:38;;;;;;;3.28;1.00;;;;;;;27.72;100.00;99039.75;5008047;28;20022;-76
2023/08/06 10:56:18;;;;;;;2.20;1.33;;;;;;;27.94;100.00;99079.91;5003059;28;20046;-77
2023/08/06 10:58:46;;;;;;;2.75;1.25;;;;;;;28.11;100.00;99083.72;5006411;28;20042;-76
2023/08/06 11:01:12;;;;;;;3.85;1.88;;;;;;;27.86;100.00;99076.22;5007156;28;20762;-76
2023/08/06 11:03:38;;;;;;;4.72;1.95;;;;;;;27.76;100.00;99108.56;5005067;28;20117;-76
2023/08/06 11:06:07;;;;;;;3.78;0.95;;;;;;;27.06;100.00;99081.63;4998337;28;20069;-76
2023/08/06 11:08:47;;;;;;;2.28;1.05;;;;;;;27.30;100.00;99094.78;5007361;28;20437;-77
2023/08/06 11:11:15;;;;;;;2.13;0.90;;;;;;;26.53;100.00;99011.91;5007277;28;20046;-77
2023/08/06 11:13:46;;;;;;;0.93;0.73;;;;;;;26.74;100.00;99033.41;5006373;28;20042;-78
2023/08/06 11:16:14;;;;;;;1.52;1.17;;;;;;;26.51;100.00;99017.41;5007272;28;20474;-78
2023/08/06 11:18:40;;;;;;;4.90;1.98;;;;;;;26.85;100.00;98998.28;5007544;28;20128;-76
2023/08/06 11:21:07;;;;;;;2.40;1.13;;;;;;;27.04;100.00;99000.19;5001408;28;20053;-79